Aérodrome :
LOGIN :

S'inscrire | Disclaimer

   EN    FR    IT 

 










Légende :    VFR   VFR Marginal   IFR   IFR Intensif   IFR Très Intensif
Visi : 
Plafond : 
>= 8 km
>= 3000ft
5 à 8 km
1000 à 3000 ft
1500m à 5 km
500 à 1000 ft
800 à 1500m
200 à 500 ft
< 800m
< 200 ft
Symboles :   Orages  Brouillard  Fortes neiges  Fortes précipitations  Vent > 20 kt
SIGMETs :   Divers  Orages  Givrage  Turbulence  Onde Orograph.  Cendres Volcan.







- Altitude de l'aérodrome : 38 ft
- Code IATA : BOH
- Voir les cartes d'approche


EGHH - Bournemouth

DERNIER METAR :
  • 251520Z 19007KT CAVOK 24/11 Q1025

METARs EXPIRÉS :
  • 251450Z 19009KT 100V190 CAVOK 23/11 Q1025
  • 251420Z 18010KT 130V240 CAVOK 24/11 Q1025
  • 251350Z 18009KT CAVOK 24/12 Q1026
  • 251320Z 18009KT CAVOK 24/11 Q1026
  • 251250Z 18008KT 120V200 CAVOK 23/12 Q1026

TAF TAF EGHH
Valide du 25 à 15h jusqu'au 26 à 00h UTC


251402Z 2515/2524 19010KT CAVOK
BECMG 2518/2521 VRB03KT
ATIS : +44 1202 364 151
Météo : +44 1202 364 158 (TAF)
Pas de NOTAMs connus pour ce terrain.



MET'MAP, la Météo Aéronautique d'un coup d'oeil ! - Copyright ORBIFLY Décembre 2007 - Disclaimer

ORBIFLY MET'MAP TEAM :

Programmation & Développement : Alexandra Zaïnal
Conception & Développement : Baudouin d'Aumeries
Co-Programmation & Développement : Marc-Olivier Méhu
Soutien technique & logistique : Manuel Goepfert

Contact : metmap@orbifly.com




SOURCES & CREDITS :

   NOAA